createdAt,value
2017-09-26T00:02:27.260Z,24.48
2017-09-26T00:05:01.598Z,28.92
2017-09-26T00:07:36.127Z,26.60
2017-09-26T00:10:11.367Z,26.65
2017-09-26T00:12:46.106Z,26.00
2017-09-26T00:15:20.672Z,26.30
2017-09-26T00:17:55.059Z,29.85
2017-09-26T00:20:29.563Z,26.08
2017-09-26T00:23:04.109Z,28.52
2017-09-26T00:25:38.572Z,31.85
2017-09-26T00:28:13.056Z,27.42
2017-09-26T00:30:47.504Z,27.33
2017-09-26T00:33:21.893Z,28.02
2017-09-26T00:36:11.052Z,26.02
2017-09-26T00:38:46.611Z,27.23
2017-09-26T00:41:20.902Z,28.35
2017-09-26T00:43:55.331Z,29.17
2017-09-26T00:46:30.605Z,28.55
2017-09-26T00:49:05.256Z,28.77
2017-09-26T00:51:39.769Z,26.65
2017-09-26T00:54:14.285Z,25.08
2017-09-26T00:56:48.803Z,30.10
2017-09-26T00:59:23.162Z,30.62
2017-09-26T01:01:58.365Z,28.60
2017-09-26T01:04:32.984Z,30.40
2017-09-26T01:07:10.773Z,33.97
2017-09-26T01:09:45.931Z,23.73
2017-09-26T01:12:20.401Z,26.52
2017-09-26T01:14:54.797Z,25.00
2017-09-26T01:17:29.322Z,31.00
2017-09-26T01:20:03.859Z,28.90
2017-09-26T01:22:38.224Z,31.25
2017-09-26T01:25:12.607Z,30.73
2017-09-26T01:27:47.008Z,25.02
2017-09-26T01:30:21.495Z,27.00
2017-09-26T01:32:55.827Z,29.33
2017-09-26T01:35:30.235Z,27.90
2017-09-26T01:38:04.624Z,26.80
2017-09-26T01:54:24.032Z,25.77
2017-09-26T01:57:03.048Z,24.50
2017-09-26T01:59:41.799Z,25.00
2017-09-26T02:02:17.087Z,29.30
2017-09-26T02:04:51.621Z,28.65
2017-09-26T02:07:25.964Z,23.67
2017-09-26T02:10:00.339Z,26.83
2017-09-26T02:12:34.837Z,27.65
2017-09-26T02:15:09.315Z,27.02
2017-09-26T02:17:43.732Z,26.55
2017-09-26T02:20:18.239Z,25.08
2017-09-26T02:22:53.536Z,29.30
2017-09-26T02:25:27.977Z,26.42
2017-09-26T02:28:02.352Z,30.60
2017-09-26T02:30:36.819Z,26.30
2017-09-26T02:33:11.388Z,27.30
2017-09-26T02:35:45.789Z,26.42
2017-09-26T02:38:20.944Z,27.75
2017-09-26T02:40:55.259Z,25.95
2017-09-26T02:43:29.636Z,24.12
2017-09-26T02:46:04.884Z,26.45
2017-09-26T02:48:39.358Z,30.50
2017-09-26T02:51:13.823Z,25.67
2017-09-26T02:53:48.158Z,28.17
2017-09-26T02:56:22.895Z,27.87
2017-09-26T02:58:57.405Z,29.35
2017-09-26T03:01:31.840Z,30.50
2017-09-26T03:04:06.341Z,33.75
2017-09-26T03:06:40.727Z,28.00
2017-09-26T03:09:15.975Z,26.77
2017-09-26T03:11:50.356Z,26.92
2017-09-26T03:14:24.723Z,31.15
2017-09-26T03:16:59.193Z,27.52
2017-09-26T03:19:33.635Z,28.48
2017-09-26T03:22:08.246Z,29.75
2017-09-26T03:24:42.558Z,33.15
2017-09-26T03:27:16.952Z,28.77
2017-09-26T03:29:52.047Z,28.00
2017-09-26T03:32:26.789Z,27.87
2017-09-26T03:35:01.319Z,30.23
2017-09-26T03:37:36.059Z,32.33
2017-09-26T03:40:10.551Z,30.62
2017-09-26T03:42:44.995Z,28.45
2017-09-26T03:45:19.383Z,29.48
2017-09-26T03:47:53.785Z,30.00
2017-09-26T03:50:29.075Z,32.67
2017-09-26T03:53:03.800Z,36.08
2017-09-26T03:55:38.301Z,35.75
2017-09-26T03:58:13.719Z,30.90
2017-09-26T04:00:48.221Z,30.10
2017-09-26T04:03:22.704Z,36.17
2017-09-26T04:05:57.739Z,32.63
2017-09-26T04:08:32.313Z,29.92
2017-09-26T04:11:06.625Z,32.42
2017-09-26T04:13:41.003Z,33.50
2017-09-26T04:16:15.555Z,33.67
2017-09-26T04:18:49.908Z,33.08
2017-09-26T04:21:24.341Z,38.35
2017-09-26T04:23:58.887Z,32.10
2017-09-26T04:26:33.314Z,32.85
2017-09-26T04:29:07.827Z,42.92
2017-09-26T04:31:42.244Z,35.35
2017-09-26T04:34:16.573Z,33.78
2017-09-26T04:36:51.193Z,34.30
2017-09-26T04:39:25.655Z,34.53
2017-09-26T04:42:00.147Z,37.85
2017-09-26T04:44:34.653Z,37.88
2017-09-26T04:47:08.991Z,35.30
2017-09-26T04:49:43.431Z,33.88
2017-09-26T04:52:17.814Z,38.40
2017-09-26T04:54:52.300Z,36.10
2017-09-26T04:57:26.852Z,48.55
2017-09-26T05:00:01.355Z,46.63
2017-09-26T05:02:35.901Z,37.63
2017-09-26T05:05:10.442Z,36.10
2017-09-26T05:07:44.934Z,38.92
2017-09-26T05:10:19.315Z,36.95
2017-09-26T05:12:53.679Z,40.55
2017-09-26T05:15:28.162Z,38.17
2017-09-26T05:18:02.971Z,38.78
2017-09-26T05:20:37.303Z,37.63
2017-09-26T05:23:11.673Z,36.67
2017-09-26T05:25:46.172Z,36.20
2017-09-26T05:28:20.804Z,36.63
2017-09-26T05:30:55.366Z,36.05
2017-09-26T05:33:29.885Z,36.15
2017-09-26T05:36:04.418Z,36.80
2017-09-26T05:38:38.880Z,40.95
2017-09-26T05:41:14.088Z,38.67
2017-09-26T05:43:49.439Z,38.17
2017-09-26T05:46:23.988Z,42.72
2017-09-26T05:48:58.547Z,35.25
2017-09-26T05:51:33.110Z,36.97
2017-09-26T05:54:07.523Z,36.95
2017-09-26T05:56:41.916Z,35.10
2017-09-26T05:59:16.389Z,38.72
2017-09-26T06:01:50.818Z,35.75
2017-09-26T06:04:25.303Z,38.58
2017-09-26T06:07:00.589Z,37.10
2017-09-26T06:09:35.688Z,36.83
2017-09-26T06:12:10.156Z,36.78
2017-09-26T06:14:44.599Z,35.42
2017-09-26T06:17:19.218Z,37.72
2017-09-26T06:19:53.728Z,35.97
2017-09-26T06:22:28.083Z,36.75
2017-09-26T06:25:02.613Z,36.58
2017-09-26T06:27:37.141Z,39.08
2017-09-26T06:30:12.378Z,34.72
2017-09-26T06:32:47.035Z,39.63
2017-09-26T06:35:21.626Z,37.25
2017-09-26T06:37:56.195Z,36.78
2017-09-26T06:40:30.745Z,38.90
2017-09-26T06:43:05.132Z,41.03
2017-09-26T06:45:40.323Z,37.75
2017-09-26T06:48:14.849Z,40.85
2017-09-26T06:50:49.180Z,41.90
2017-09-26T06:53:23.603Z,40.40
2017-09-26T06:55:58.106Z,40.12
2017-09-26T06:58:32.444Z,39.85
2017-09-26T07:01:06.889Z,41.42
2017-09-26T07:03:41.467Z,43.35
2017-09-26T07:06:15.873Z,39.47
2017-09-26T07:08:50.316Z,36.72
2017-09-26T07:11:24.833Z,39.28
2017-09-26T07:13:59.296Z,38.67
2017-09-26T07:16:33.783Z,44.25
2017-09-26T07:19:08.286Z,42.75
2017-09-26T07:21:42.859Z,43.60
2017-09-26T07:24:17.391Z,42.38
2017-09-26T07:26:51.944Z,40.25
2017-09-26T07:29:26.322Z,44.42
2017-09-26T07:32:00.784Z,37.63
2017-09-26T07:34:35.164Z,41.80
2017-09-26T07:37:09.516Z,38.58
2017-09-26T07:39:43.952Z,39.92
2017-09-26T07:42:18.452Z,39.17
2017-09-26T07:44:52.892Z,41.30
2017-09-26T07:47:27.311Z,40.17
2017-09-26T07:50:01.737Z,49.70
2017-09-26T07:52:36.264Z,38.88
2017-09-26T07:55:10.996Z,40.10
2017-09-26T07:57:45.528Z,41.42
2017-09-26T08:00:20.069Z,41.60
2017-09-26T08:02:54.561Z,37.58
2017-09-26T08:05:30.107Z,39.97
2017-09-26T08:08:04.860Z,43.87
2017-09-26T08:10:39.513Z,40.22
2017-09-26T08:13:15.122Z,43.90
2017-09-26T08:15:49.677Z,45.03
2017-09-26T08:18:24.121Z,50.47
2017-09-26T08:20:58.922Z,44.60
2017-09-26T08:23:33.352Z,40.72
2017-09-26T08:26:07.745Z,39.08
2017-09-26T08:28:42.187Z,44.60
2017-09-26T08:31:16.798Z,39.28
2017-09-26T08:33:51.321Z,44.17
2017-09-26T08:36:25.813Z,41.55
2017-09-26T08:39:00.293Z,38.33
2017-09-26T08:41:34.722Z,42.92
2017-09-26T08:44:09.870Z,42.10
2017-09-26T08:46:44.345Z,39.63
2017-09-26T08:49:18.699Z,45.03
2017-09-26T08:51:53.179Z,37.60
2017-09-26T08:54:27.967Z,40.55
2017-09-26T08:57:02.475Z,36.47
2017-09-26T08:59:36.909Z,40.95
2017-09-26T09:02:11.356Z,38.90
2017-09-26T09:04:45.694Z,46.70
2017-09-26T09:07:20.175Z,38.78
2017-09-26T09:09:55.473Z,42.10
2017-09-26T09:12:29.974Z,41.88
2017-09-26T09:15:04.560Z,48.90
2017-09-26T09:17:39.062Z,42.67
2017-09-26T09:20:13.911Z,49.15
2017-09-26T09:22:49.137Z,45.28
2017-09-26T09:25:23.628Z,44.45
2017-09-26T09:27:58.048Z,47.42
2017-09-26T09:30:32.507Z,48.38
2017-09-26T09:33:06.907Z,48.63
2017-09-26T09:35:41.323Z,62.53
2017-09-26T09:38:15.765Z,45.35
2017-09-26T09:40:50.421Z,42.62
2017-09-26T09:43:25.695Z,48.67
2017-09-26T09:46:00.079Z,54.70
2017-09-26T09:48:34.560Z,49.70
2017-09-26T09:51:09.280Z,53.03
2017-09-26T09:53:43.655Z,48.67
2017-09-26T09:56:18.175Z,53.70
2017-09-26T09:58:52.711Z,51.45
2017-09-26T10:01:27.160Z,49.20
2017-09-26T10:04:01.489Z,49.00
2017-09-26T10:06:36.655Z,48.00
2017-09-26T10:09:11.105Z,54.58
2017-09-26T10:11:45.448Z,52.55
2017-09-26T10:14:22.167Z,57.72
2017-09-26T10:17:00.149Z,49.10
2017-09-26T10:19:35.448Z,48.90
2017-09-26T10:22:09.791Z,48.65
2017-09-26T10:24:44.343Z,50.83
2017-09-26T10:27:20.287Z,46.15
2017-09-26T10:29:54.793Z,50.45
2017-09-26T10:32:29.710Z,44.97
2017-09-26T10:35:04.263Z,45.17
2017-09-26T10:37:38.768Z,44.55
2017-09-26T10:40:13.223Z,39.78
2017-09-26T10:42:47.699Z,46.45
2017-09-26T10:45:22.831Z,44.42
2017-09-26T10:47:59.045Z,44.72
2017-09-26T10:50:34.621Z,39.25
2017-09-26T10:53:09.868Z,43.97
2017-09-26T10:55:44.216Z,46.05
2017-09-26T10:58:19.401Z,39.38
2017-09-26T11:00:53.816Z,40.08
2017-09-26T11:03:28.302Z,40.92
2017-09-26T11:06:02.735Z,42.90
2017-09-26T11:08:37.272Z,45.70
2017-09-26T11:11:11.760Z,43.30
2017-09-26T11:13:46.624Z,44.67
2017-09-26T11:16:21.108Z,41.97
2017-09-26T11:18:55.546Z,45.65
2017-09-26T11:21:29.904Z,44.75
2017-09-26T11:24:05.070Z,45.55
2017-09-26T11:26:39.589Z,47.47
2017-09-26T11:29:14.014Z,45.55
2017-09-26T11:31:48.523Z,43.20
2017-09-26T11:34:23.157Z,39.95
2017-09-26T11:36:57.916Z,47.83
2017-09-26T11:39:32.316Z,44.65
2017-09-26T11:42:06.705Z,38.60
2017-09-26T11:44:41.043Z,43.42
2017-09-26T11:47:15.444Z,42.28
2017-09-26T11:49:49.817Z,43.72
2017-09-26T11:52:24.274Z,42.65
2017-09-26T11:54:59.561Z,42.78
2017-09-26T11:57:33.897Z,44.25
2017-09-26T12:00:08.287Z,41.25
2017-09-26T12:02:42.647Z,43.75
2017-09-26T12:05:17.123Z,47.22
2017-09-26T12:07:51.582Z,43.58
2017-09-26T12:10:26.051Z,45.00
2017-09-26T12:13:06.195Z,40.88
2017-09-26T12:15:40.630Z,41.20
2017-09-26T12:18:14.942Z,39.72
2017-09-26T12:20:49.519Z,45.83
2017-09-26T12:23:24.043Z,37.72
2017-09-26T12:25:58.516Z,39.28
2017-09-26T12:28:33.057Z,42.88
2017-09-26T12:31:07.575Z,44.33
2017-09-26T12:33:42.053Z,44.15
2017-09-26T12:36:16.488Z,38.38
2017-09-26T12:38:50.900Z,41.35
2017-09-26T12:41:25.666Z,42.90
2017-09-26T12:44:00.296Z,39.58
2017-09-26T12:46:34.780Z,44.67
2017-09-26T12:49:10.614Z,51.50
2017-09-26T12:51:45.096Z,51.75
2017-09-26T12:54:19.536Z,50.88
2017-09-26T12:56:54.836Z,55.28
2017-09-26T12:59:29.299Z,55.95
2017-09-26T13:02:03.810Z,55.38
2017-09-26T13:04:39.004Z,56.72
2017-09-26T13:07:13.415Z,55.45
2017-09-26T13:09:47.926Z,50.88
2017-09-26T13:12:22.575Z,52.05
2017-09-26T13:14:56.906Z,51.28
2017-09-26T13:17:31.240Z,54.60
2017-09-26T13:20:06.404Z,50.70
2017-09-26T13:22:41.040Z,53.80
2017-09-26T13:25:15.597Z,64.78
2017-09-26T13:27:49.905Z,53.97
2017-09-26T13:30:24.367Z,54.05
2017-09-26T13:32:59.048Z,57.00
2017-09-26T13:35:33.339Z,51.53
2017-09-26T13:38:07.908Z,50.90
2017-09-26T13:40:43.003Z,47.92
2017-09-26T13:43:17.474Z,53.45
2017-09-26T13:45:51.933Z,55.53
2017-09-26T13:48:27.415Z,48.83
2017-09-26T13:51:01.916Z,56.50
2017-09-26T13:53:37.040Z,55.45
2017-09-26T13:56:11.452Z,57.25
2017-09-26T13:58:45.898Z,55.47
2017-09-26T14:01:20.415Z,63.78
2017-09-26T14:03:54.832Z,56.35
2017-09-26T14:06:29.322Z,56.53
2017-09-26T14:09:03.843Z,57.38
2017-09-26T14:11:38.318Z,51.72
2017-09-26T14:14:12.719Z,54.78
2017-09-26T14:16:47.056Z,62.25
2017-09-26T14:19:21.635Z,60.47
2017-09-26T14:21:56.154Z,61.72
2017-09-26T14:24:31.300Z,58.95
2017-09-26T14:27:05.775Z,60.63
2017-09-26T14:29:40.992Z,54.22
2017-09-26T14:32:15.567Z,56.37
2017-09-26T14:34:50.117Z,51.37
2017-09-26T14:37:24.545Z,50.10
2017-09-26T14:39:59.566Z,53.63
2017-09-26T14:42:34.068Z,44.42
2017-09-26T14:45:08.860Z,47.60
2017-09-26T14:47:43.355Z,47.72
2017-09-26T14:50:17.848Z,54.33
2017-09-26T14:52:52.683Z,52.03
2017-09-26T14:55:27.186Z,53.00
2017-09-26T14:58:01.697Z,54.70
2017-09-26T15:00:36.392Z,46.42
2017-09-26T15:03:10.888Z,53.63
2017-09-26T15:05:45.339Z,49.28
2017-09-26T15:08:19.999Z,47.42
2017-09-26T15:10:54.441Z,53.70
2017-09-26T15:13:29.168Z,48.65
2017-09-26T15:16:03.718Z,56.55
2017-09-26T15:18:38.274Z,44.50
2017-09-26T15:21:13.439Z,51.10
2017-09-26T15:23:47.860Z,43.38
2017-09-26T15:26:22.365Z,42.38
2017-09-26T15:28:57.232Z,49.78
2017-09-26T15:31:31.663Z,43.65
2017-09-26T15:34:06.872Z,48.72
2017-09-26T15:36:41.227Z,48.42
2017-09-26T15:39:15.735Z,47.85
2017-09-26T15:41:50.125Z,49.58
2017-09-26T15:44:26.763Z,46.20
2017-09-26T15:47:02.033Z,43.90
2017-09-26T15:49:36.583Z,51.05
2017-09-26T15:52:11.140Z,48.30
2017-09-26T15:54:45.613Z,40.78
2017-09-26T15:57:20.078Z,42.50
2017-09-26T15:59:54.618Z,46.22
2017-09-26T16:02:29.108Z,39.58
2017-09-26T16:05:04.419Z,40.63
2017-09-26T16:07:38.856Z,50.53
2017-09-26T16:10:14.382Z,42.67
2017-09-26T16:12:49.047Z,39.47
2017-09-26T16:15:23.603Z,38.20
2017-09-26T16:17:57.911Z,40.35
2017-09-26T16:20:32.442Z,39.13
2017-09-26T16:23:06.911Z,37.78
2017-09-26T16:25:41.267Z,39.33
2017-09-26T16:28:15.793Z,41.00
2017-09-26T16:30:51.089Z,45.17
2017-09-26T16:33:25.599Z,42.83
2017-09-26T16:36:00.038Z,39.45
2017-09-26T16:38:34.442Z,48.70
2017-09-26T16:41:10.123Z,42.85
2017-09-26T16:43:44.461Z,42.05
2017-09-26T16:46:18.911Z,41.80
2017-09-26T16:48:53.383Z,47.33
2017-09-26T16:51:28.699Z,49.50
2017-09-26T16:54:03.056Z,48.87
2017-09-26T16:56:37.671Z,50.15
2017-09-26T16:59:12.040Z,45.70
2017-09-26T17:01:46.786Z,49.88
2017-09-26T17:04:21.270Z,50.10
2017-09-26T17:06:56.130Z,58.67
2017-09-26T17:09:30.699Z,54.60
2017-09-26T17:12:05.841Z,50.95
2017-09-26T17:14:40.217Z,59.17
2017-09-26T17:17:14.957Z,58.00
2017-09-26T17:19:49.428Z,53.80
2017-09-26T17:22:24.117Z,50.90
2017-09-26T17:24:58.685Z,52.33
2017-09-26T17:27:33.178Z,53.92
2017-09-26T17:30:07.641Z,60.15
2017-09-26T17:32:42.107Z,56.70
2017-09-26T17:35:16.581Z,49.63
2017-09-26T17:37:51.073Z,54.70
2017-09-26T17:40:25.411Z,54.60
2017-09-26T17:42:59.967Z,54.80
2017-09-26T17:45:34.292Z,56.40
2017-09-26T17:48:08.787Z,70.30
2017-09-26T17:50:43.229Z,59.22
2017-09-26T17:53:17.825Z,63.13
2017-09-26T17:55:52.255Z,54.03
2017-09-26T17:58:26.725Z,63.87
2017-09-26T18:01:01.257Z,57.53
2017-09-26T18:03:35.789Z,56.42
2017-09-26T18:06:10.384Z,54.70
2017-09-26T18:08:44.764Z,56.22
2017-09-26T18:11:19.225Z,55.08
2017-09-26T18:13:54.041Z,59.65
2017-09-26T18:16:28.618Z,54.42
2017-09-26T18:19:02.986Z,53.53
2017-09-26T18:21:37.465Z,49.78
2017-09-26T18:24:11.927Z,56.50
2017-09-26T18:26:46.498Z,58.22
2017-09-26T18:29:21.173Z,48.97
2017-09-26T18:31:55.976Z,54.17
2017-09-26T18:34:30.732Z,52.97
2017-09-26T18:37:05.571Z,67.70
2017-09-26T18:39:40.476Z,52.42
2017-09-26T18:42:15.222Z,60.58
2017-09-26T18:44:50.167Z,48.45
2017-09-26T18:47:24.816Z,57.53
2017-09-26T18:49:59.725Z,56.33
2017-09-26T18:52:34.660Z,60.22
2017-09-26T18:55:09.588Z,52.67
2017-09-26T18:57:44.306Z,61.13
2017-09-26T19:00:19.145Z,53.28
2017-09-26T19:02:54.247Z,58.10
2017-09-26T19:05:29.260Z,56.70
2017-09-26T19:08:04.375Z,56.92
2017-09-26T19:10:39.433Z,55.92
2017-09-26T19:13:14.225Z,60.45
2017-09-26T19:15:49.058Z,52.53
2017-09-26T19:18:24.160Z,55.58
2017-09-26T19:20:59.730Z,54.33
2017-09-26T19:23:34.508Z,59.78
2017-09-26T19:26:09.539Z,52.60
2017-09-26T19:28:44.306Z,53.95
2017-09-26T19:31:19.385Z,59.20
2017-09-26T19:33:54.287Z,53.47
2017-09-26T19:36:29.817Z,51.63
2017-09-26T19:39:05.444Z,50.30
2017-09-26T19:41:43.385Z,56.70
2017-09-26T19:44:20.210Z,49.63
2017-09-26T19:46:56.023Z,48.40
2017-09-26T19:49:31.610Z,58.60
2017-09-26T19:52:07.103Z,55.22
2017-09-26T19:54:42.133Z,51.35
2017-09-26T19:57:17.430Z,49.67
2017-09-26T19:59:57.731Z,51.65
2017-09-26T20:02:34.362Z,52.78
2017-09-26T20:05:10.149Z,53.53
2017-09-26T20:07:46.719Z,56.28
2017-09-26T20:10:22.220Z,57.58
2017-09-26T20:12:59.593Z,48.80
2017-09-26T20:15:35.602Z,52.92
2017-09-26T20:18:13.414Z,50.75
2017-09-26T20:20:49.604Z,51.75
2017-09-26T20:23:25.536Z,52.55
2017-09-26T20:26:02.500Z,51.08
2017-09-26T20:28:36.962Z,52.50
2017-09-26T20:31:11.535Z,57.17
2017-09-26T20:33:48.656Z,51.60
2017-09-26T20:36:23.597Z,56.85
2017-09-26T20:38:58.240Z,56.03
2017-09-26T20:41:32.646Z,50.00
2017-09-26T20:44:09.154Z,52.42
2017-09-26T20:46:43.588Z,60.58
2017-09-26T20:49:18.101Z,63.83
2017-09-26T20:51:52.670Z,58.75
2017-09-26T20:54:27.983Z,57.85
2017-09-26T20:57:03.564Z,57.17
2017-09-26T20:59:38.140Z,57.03
2017-09-26T21:02:12.619Z,56.78
2017-09-26T21:04:47.128Z,53.08
2017-09-26T21:07:21.778Z,52.58
2017-09-26T21:09:56.217Z,53.22
2017-09-26T21:12:30.665Z,63.22
2017-09-26T21:15:05.305Z,59.33
2017-09-26T21:17:39.788Z,54.33
2017-09-26T21:20:14.946Z,53.60
2017-09-26T21:22:49.344Z,55.30
2017-09-26T21:25:24.218Z,58.05
2017-09-26T21:27:58.588Z,55.00
2017-09-26T21:30:33.137Z,55.60
2017-09-26T21:33:07.447Z,54.53
2017-09-26T21:35:41.877Z,61.53
2017-09-26T21:38:17.335Z,51.85
2017-09-26T21:40:51.780Z,55.00
2017-09-26T21:43:26.333Z,52.90
2017-09-26T21:46:01.507Z,58.72
2017-09-26T21:48:35.916Z,55.30
2017-09-26T21:51:11.172Z,51.22
2017-09-26T21:53:45.711Z,53.50
2017-09-26T21:56:20.191Z,50.10
2017-09-26T21:58:54.590Z,55.60
2017-09-26T22:01:28.985Z,56.17
2017-09-26T22:04:03.562Z,58.67
2017-09-26T22:06:38.205Z,60.03
2017-09-26T22:09:12.721Z,59.05
2017-09-26T22:11:47.135Z,57.75
2017-09-26T22:14:21.699Z,56.03
2017-09-26T22:16:56.212Z,52.03
2017-09-26T22:19:31.401Z,47.10
2017-09-26T22:22:06.663Z,49.67
2017-09-26T22:24:41.162Z,57.03
2017-09-26T22:27:15.696Z,50.58
2017-09-26T22:29:50.922Z,51.70
2017-09-26T22:32:26.179Z,52.92
2017-09-26T22:35:00.507Z,58.35
2017-09-26T22:37:34.984Z,55.17
2017-09-26T22:40:09.431Z,50.17
2017-09-26T22:42:43.848Z,56.40
2017-09-26T22:45:18.252Z,60.80
2017-09-26T22:47:52.587Z,57.03
2017-09-26T22:50:27.171Z,55.75
2017-09-26T22:53:02.432Z,53.90
2017-09-26T22:55:36.766Z,54.63
2017-09-26T22:58:11.281Z,58.03
2017-09-26T23:00:45.766Z,60.95
2017-09-26T23:03:20.347Z,58.17
2017-09-26T23:05:54.759Z,62.90
2017-09-26T23:08:29.488Z,63.92
2017-09-26T23:11:03.991Z,56.67
2017-09-26T23:13:38.380Z,53.87
2017-09-26T23:16:12.751Z,63.28
2017-09-26T23:18:47.167Z,46.08
2017-09-26T23:21:21.488Z,53.63
2017-09-26T23:23:55.886Z,55.67
2017-09-26T23:26:30.195Z,52.90
2017-09-26T23:29:04.844Z,57.85
2017-09-26T23:31:39.402Z,54.00
2017-09-26T23:34:14.179Z,53.72
2017-09-26T23:36:48.555Z,64.93
2017-09-26T23:39:23.007Z,56.13
2017-09-26T23:41:57.338Z,55.58
2017-09-26T23:44:32.569Z,55.88
2017-09-26T23:47:07.142Z,52.55
2017-09-26T23:49:41.487Z,53.83
2017-09-26T23:52:16.031Z,55.38
2017-09-26T23:54:51.242Z,55.95
2017-09-26T23:57:25.821Z,59.17
